McClellan-Palomar Airport

Airport
ICAO code: 
KCRQ
IATA Code: 
CLD
Summary
ICAO Region: 
NAM
Territory: 
Location: 
Carlsbad, California
Serving: 
San Diego County
Elevation: 
331 ft
Coordinates: 
Aerial View: 
33° 7' 35.7" N, 117° 16' 43.816" W
Metar
Observation
KCRQ 011253Z AUTO 00000KT 9SM CLR 10/06 A3004 RMK AO2 SLP173 T01000061
Station
Carlsbad, McClellan-Palomar Airport
Date/Time
2021-12-01 12:53:00
Wind direction
Wind speed
00 kts
Lowest cloud amount
n/a
Temperature
10°C
Dew point
6.1°C
Humidity
76%
Weather condition
n/a

McClellan–Palomar Airport, known to locals as Palomar Airport, is a public airport located 5 km southeast of the central business district of Carlsbad, a city in San Diego County, California.

Climatology

Mediterranean (Köppen climate classification Csb)

Runways

Designator Length Width Surface Rops
6/24 1493 46 ASP Yes/Yes
Airport map: 
Aerial View: 

SKYbrary Partners:

Safety knowledge contributed by: